sensor_id;sensor_type;location;lat;lon;timestamp;temperature;humidity
8332;DHT22;4203;48.144;14.118;2024-03-29T00:00:03;1.40;99.90
8332;DHT22;4203;48.144;14.118;2024-03-29T00:02:29;1.40;99.90
8332;DHT22;4203;48.144;14.118;2024-03-29T00:04:57;1.40;99.90
8332;DHT22;4203;48.144;14.118;2024-03-29T00:07:23;1.40;99.90
8332;DHT22;4203;48.144;14.118;2024-03-29T00:09:51;1.40;99.90
8332;DHT22;4203;48.144;14.118;2024-03-29T00:12:18;1.50;99.90
8332;DHT22;4203;48.144;14.118;2024-03-29T00:14:44;1.60;99.90
8332;DHT22;4203;48.144;14.118;2024-03-29T00:17:11;2.60;99.90
8332;DHT22;4203;48.144;14.118;2024-03-29T00:19:38;2.80;99.90
8332;DHT22;4203;48.144;14.118;2024-03-29T00:22:06;1.60;99.90
8332;DHT22;4203;48.144;14.118;2024-03-29T00:24:35;1.60;99.90
8332;DHT22;4203;48.144;14.118;2024-03-29T00:27:05;1.50;99.90
8332;DHT22;4203;48.144;14.118;2024-03-29T00:29:32;1.50;99.90
8332;DHT22;4203;48.144;14.118;2024-03-29T00:32:02;1.40;99.90
8332;DHT22;4203;48.144;14.118;2024-03-29T00:34:29;1.40;99.90
8332;DHT22;4203;48.144;14.118;2024-03-29T00:36:56;1.40;99.90
8332;DHT22;4203;48.144;14.118;2024-03-29T00:39:22;0.80;99.90
8332;DHT22;4203;48.144;14.118;2024-03-29T00:41:48;1.30;99.90
8332;DHT22;4203;48.144;14.118;2024-03-29T00:44:16;1.30;99.90
8332;DHT22;4203;48.144;14.118;2024-03-29T00:46:43;1.20;99.90
8332;DHT22;4203;48.144;14.118;2024-03-29T00:49:10;1.10;99.90
8332;DHT22;4203;48.144;14.118;2024-03-29T00:51:36;1.10;99.90
8332;DHT22;4203;48.144;14.118;2024-03-29T00:54:02;0.00;99.90
8332;DHT22;4203;48.144;14.118;2024-03-29T00:56:30;0.50;99.90
8332;DHT22;4203;48.144;14.118;2024-03-29T00:58:57;0.20;99.90
8332;DHT22;4203;48.144;14.118;2024-03-29T01:01:25;0.60;99.90
8332;DHT22;4203;48.144;14.118;2024-03-29T01:03:54;1.10;99.90
8332;DHT22;4203;48.144;14.118;2024-03-29T01:06:22;0.90;99.90
8332;DHT22;4203;48.144;14.118;2024-03-29T01:08:48;1.10;99.90
8332;DHT22;4203;48.144;14.118;2024-03-29T01:11:15;0.60;99.90
8332;DHT22;4203;48.144;14.118;2024-03-29T01:13:41;1.10;99.90
8332;DHT22;4203;48.144;14.118;2024-03-29T01:16:08;1.10;99.90
8332;DHT22;4203;48.144;14.118;2024-03-29T01:18:35;1.10;99.90
8332;DHT22;4203;48.144;14.118;2024-03-29T01:21:02;1.10;99.90
8332;DHT22;4203;48.144;14.118;2024-03-29T01:23:28;1.10;99.90
8332;DHT22;4203;48.144;14.118;2024-03-29T01:25:57;1.20;99.90
8332;DHT22;4203;48.144;14.118;2024-03-29T01:28:23;1.00;99.90
8332;DHT22;4203;48.144;14.118;2024-03-29T01:30:53;0.90;99.90
8332;DHT22;4203;48.144;14.118;2024-03-29T01:33:19;1.00;99.90
8332;DHT22;4203;48.144;14.118;2024-03-29T01:35:49;1.00;99.90
8332;DHT22;4203;48.144;14.118;2024-03-29T01:38:15;1.00;99.90
8332;DHT22;4203;48.144;14.118;2024-03-29T01:40:42;1.00;99.90
8332;DHT22;4203;48.144;14.118;2024-03-29T01:43:08;1.10;99.90
8332;DHT22;4203;48.144;14.118;2024-03-29T01:45:38;1.10;99.90
8332;DHT22;4203;48.144;14.118;2024-03-29T01:48:07;1.20;99.90
8332;DHT22;4203;48.144;14.118;2024-03-29T01:50:35;1.30;99.90
8332;DHT22;4203;48.144;14.118;2024-03-29T01:53:08;1.40;99.90
8332;DHT22;4203;48.144;14.118;2024-03-29T01:55:36;1.40;99.90
8332;DHT22;4203;48.144;14.118;2024-03-29T01:58:03;1.50;99.90
8332;DHT22;4203;48.144;14.118;2024-03-29T02:00:32;1.50;99.90
8332;DHT22;4203;48.144;14.118;2024-03-29T02:03:00;1.60;99.90
8332;DHT22;4203;48.144;14.118;2024-03-29T02:05:30;0.60;99.90
8332;DHT22;4203;48.144;14.118;2024-03-29T02:07:58;1.50;99.90
8332;DHT22;4203;48.144;14.118;2024-03-29T02:10:27;1.50;99.90
8332;DHT22;4203;48.144;14.118;2024-03-29T02:12:54;1.50;99.90
8332;DHT22;4203;48.144;14.118;2024-03-29T02:15:24;1.60;99.90
8332;DHT22;4203;48.144;14.118;2024-03-29T02:17:51;1.70;99.90
8332;DHT22;4203;48.144;14.118;2024-03-29T02:20:18;1.70;99.90
8332;DHT22;4203;48.144;14.118;2024-03-29T02:22:49;1.80;99.90
8332;DHT22;4203;48.144;14.118;2024-03-29T02:25:20;1.80;99.90
8332;DHT22;4203;48.144;14.118;2024-03-29T02:27:48;1.80;99.90
8332;DHT22;4203;48.144;14.118;2024-03-29T02:30:16;1.80;99.90
8332;DHT22;4203;48.144;14.118;2024-03-29T02:32:43;1.70;99.90
8332;DHT22;4203;48.144;14.118;2024-03-29T02:35:11;1.70;99.90
8332;DHT22;4203;48.144;14.118;2024-03-29T02:37:38;1.60;99.90
8332;DHT22;4203;48.144;14.118;2024-03-29T02:40:07;1.60;99.90
8332;DHT22;4203;48.144;14.118;2024-03-29T02:42:36;1.50;99.90
8332;DHT22;4203;48.144;14.118;2024-03-29T02:45:04;1.50;99.90
8332;DHT22;4203;48.144;14.118;2024-03-29T02:47:32;1.50;99.90
8332;DHT22;4203;48.144;14.118;2024-03-29T02:49:59;1.50;99.90
8332;DHT22;4203;48.144;14.118;2024-03-29T02:52:25;1.50;99.90
8332;DHT22;4203;48.144;14.118;2024-03-29T02:54:56;1.40;99.90
8332;DHT22;4203;48.144;14.118;2024-03-29T02:57:23;1.40;99.90
8332;DHT22;4203;48.144;14.118;2024-03-29T02:59:51;1.30;99.90
8332;DHT22;4203;48.144;14.118;2024-03-29T03:02:17;1.30;99.90
8332;DHT22;4203;48.144;14.118;2024-03-29T03:04:45;1.30;99.90
8332;DHT22;4203;48.144;14.118;2024-03-29T03:07:11;1.30;99.90
8332;DHT22;4203;48.144;14.118;2024-03-29T03:09:56;1.30;99.90
8332;DHT22;4203;48.144;14.118;2024-03-29T03:12:40;1.30;99.90
8332;DHT22;4203;48.144;14.118;2024-03-29T03:15:10;1.20;99.90
8332;DHT22;4203;48.144;14.118;2024-03-29T03:17:37;1.20;99.90
8332;DHT22;4203;48.144;14.118;2024-03-29T03:20:05;1.20;99.90
8332;DHT22;4203;48.144;14.118;2024-03-29T03:22:32;1.20;99.90
8332;DHT22;4203;48.144;14.118;2024-03-29T03:25:00;1.20;99.90
8332;DHT22;4203;48.144;14.118;2024-03-29T03:27:26;1.20;99.90
8332;DHT22;4203;48.144;14.118;2024-03-29T03:29:53;1.10;99.90
8332;DHT22;4203;48.144;14.118;2024-03-29T03:32:21;1.10;99.90
8332;DHT22;4203;48.144;14.118;2024-03-29T03:34:48;1.10;99.90
8332;DHT22;4203;48.144;14.118;2024-03-29T03:37:15;1.10;99.90
8332;DHT22;4203;48.144;14.118;2024-03-29T03:39:42;1.00;99.90
8332;DHT22;4203;48.144;14.118;2024-03-29T03:42:08;1.00;99.90
8332;DHT22;4203;48.144;14.118;2024-03-29T03:44:37;1.00;99.90
8332;DHT22;4203;48.144;14.118;2024-03-29T03:47:04;0.90;99.90
8332;DHT22;4203;48.144;14.118;2024-03-29T03:49:32;0.90;99.90
8332;DHT22;4203;48.144;14.118;2024-03-29T03:51:59;0.90;99.90
8332;DHT22;4203;48.144;14.118;2024-03-29T03:54:26;0.90;99.90
8332;DHT22;4203;48.144;14.118;2024-03-29T03:56:53;0.90;99.90
8332;DHT22;4203;48.144;14.118;2024-03-29T03:59:20;1.00;99.90
8332;DHT22;4203;48.144;14.118;2024-03-29T04:01:47;1.00;99.90
8332;DHT22;4203;48.144;14.118;2024-03-29T04:04:17;1.10;99.90
8332;DHT22;4203;48.144;14.118;2024-03-29T04:06:45;1.10;99.90
8332;DHT22;4203;48.144;14.118;2024-03-29T04:09:14;1.20;99.90
8332;DHT22;4203;48.144;14.118;2024-03-29T04:11:41;1.20;99.90
8332;DHT22;4203;48.144;14.118;2024-03-29T04:14:09;1.20;99.90
8332;DHT22;4203;48.144;14.118;2024-03-29T04:16:36;1.20;99.90
8332;DHT22;4203;48.144;14.118;2024-03-29T04:19:02;1.20;99.90
8332;DHT22;4203;48.144;14.118;2024-03-29T04:21:29;1.20;99.90
8332;DHT22;4203;48.144;14.118;2024-03-29T04:23:57;1.20;99.90
8332;DHT22;4203;48.144;14.118;2024-03-29T04:26:24;1.20;99.90
8332;DHT22;4203;48.144;14.118;2024-03-29T04:28:50;1.30;99.90
8332;DHT22;4203;48.144;14.118;2024-03-29T04:31:18;1.40;99.90
8332;DHT22;4203;48.144;14.118;2024-03-29T04:33:44;1.50;99.90
8332;DHT22;4203;48.144;14.118;2024-03-29T04:36:12;1.40;99.90
8332;DHT22;4203;48.144;14.118;2024-03-29T04:38:38;1.50;99.90
8332;DHT22;4203;48.144;14.118;2024-03-29T04:41:07;1.70;99.90
8332;DHT22;4203;48.144;14.118;2024-03-29T04:43:34;1.70;99.90
8332;DHT22;4203;48.144;14.118;2024-03-29T04:46:02;1.70;99.90
8332;DHT22;4203;48.144;14.118;2024-03-29T04:48:30;1.70;99.90
8332;DHT22;4203;48.144;14.118;2024-03-29T04:50:57;1.60;99.90
8332;DHT22;4203;48.144;14.118;2024-03-29T04:53:24;1.60;99.90
8332;DHT22;4203;48.144;14.118;2024-03-29T04:55:55;1.50;99.90
8332;DHT22;4203;48.144;14.118;2024-03-29T04:58:24;1.50;99.90
8332;DHT22;4203;48.144;14.118;2024-03-29T05:00:51;1.50;99.90
8332;DHT22;4203;48.144;14.118;2024-03-29T05:03:20;1.40;99.90
8332;DHT22;4203;48.144;14.118;2024-03-29T05:05:50;1.40;99.90
8332;DHT22;4203;48.144;14.118;2024-03-29T05:08:18;1.20;99.90
8332;DHT22;4203;48.144;14.118;2024-03-29T05:10:47;1.40;99.90
8332;DHT22;4203;48.144;14.118;2024-03-29T05:13:14;1.40;99.90
8332;DHT22;4203;48.144;14.118;2024-03-29T05:15:43;1.40;99.90
8332;DHT22;4203;48.144;14.118;2024-03-29T05:18:10;1.40;99.90
8332;DHT22;4203;48.144;14.118;2024-03-29T05:20:38;1.40;99.90
8332;DHT22;4203;48.144;14.118;2024-03-29T05:23:07;1.40;99.90
8332;DHT22;4203;48.144;14.118;2024-03-29T05:25:34;1.40;99.90
8332;DHT22;4203;48.144;14.118;2024-03-29T05:28:02;1.50;99.90
8332;DHT22;4203;48.144;14.118;2024-03-29T05:30:31;1.70;99.90
8332;DHT22;4203;48.144;14.118;2024-03-29T05:33:00;1.90;99.90
8332;DHT22;4203;48.144;14.118;2024-03-29T05:35:29;2.10;99.90
8332;DHT22;4203;48.144;14.118;2024-03-29T05:37:57;2.40;99.90
8332;DHT22;4203;48.144;14.118;2024-03-29T05:40:24;2.60;99.90
8332;DHT22;4203;48.144;14.118;2024-03-29T05:42:53;2.80;99.90
8332;DHT22;4203;48.144;14.118;2024-03-29T05:45:25;3.00;99.90
8332;DHT22;4203;48.144;14.118;2024-03-29T05:47:54;3.30;99.90
8332;DHT22;4203;48.144;14.118;2024-03-29T05:50:24;3.50;99.90
8332;DHT22;4203;48.144;14.118;2024-03-29T05:52:52;3.70;99.90
8332;DHT22;4203;48.144;14.118;2024-03-29T05:55:21;3.90;99.90
8332;DHT22;4203;48.144;14.118;2024-03-29T05:57:49;4.10;99.90
8332;DHT22;4203;48.144;14.118;2024-03-29T06:00:16;4.20;99.90
8332;DHT22;4203;48.144;14.118;2024-03-29T06:02:44;4.30;99.90
8332;DHT22;4203;48.144;14.118;2024-03-29T06:05:15;4.40;99.90
8332;DHT22;4203;48.144;14.118;2024-03-29T06:07:44;4.50;99.90
8332;DHT22;4203;48.144;14.118;2024-03-29T06:10:15;4.60;99.90
8332;DHT22;4203;48.144;14.118;2024-03-29T06:12:45;4.60;99.90
8332;DHT22;4203;48.144;14.118;2024-03-29T06:15:15;4.60;99.90
8332;DHT22;4203;48.144;14.118;2024-03-29T06:18:00;4.70;99.90
8332;DHT22;4203;48.144;14.118;2024-03-29T06:20:28;4.70;99.90
8332;DHT22;4203;48.144;14.118;2024-03-29T06:22:57;4.70;99.90
8332;DHT22;4203;48.144;14.118;2024-03-29T06:25:34;4.70;99.90
8332;DHT22;4203;48.144;14.118;2024-03-29T06:28:02;4.70;99.90
8332;DHT22;4203;48.144;14.118;2024-03-29T06:30:29;4.30;99.90
8332;DHT22;4203;48.144;14.118;2024-03-29T06:32:57;4.60;99.90
8332;DHT22;4203;48.144;14.118;2024-03-29T06:38:12;4.80;99.90
8332;DHT22;4203;48.144;14.118;2024-03-29T06:41:21;4.80;99.90
8332;DHT22;4203;48.144;14.118;2024-03-29T08:22:08;13.60;99.90
8332;DHT22;4203;48.144;14.118;2024-03-29T08:24:54;14.00;99.90
8332;DHT22;4203;48.144;14.118;2024-03-29T08:27:35;14.50;99.90
8332;DHT22;4203;48.144;14.118;2024-03-29T08:30:09;14.40;99.90
8332;DHT22;4203;48.144;14.118;2024-03-29T08:32:48;14.70;99.90
8332;DHT22;4203;48.144;14.118;2024-03-29T08:35:35;15.00;99.90
8332;DHT22;4203;48.144;14.118;2024-03-29T08:40:47;14.90;99.90
8332;DHT22;4203;48.144;14.118;2024-03-29T08:43:15;15.20;99.90
8332;DHT22;4203;48.144;14.118;2024-03-29T08:45:43;15.70;99.90
8332;DHT22;4203;48.144;14.118;2024-03-29T08:48:11;16.30;99.90
8332;DHT22;4203;48.144;14.118;2024-03-29T08:50:38;16.60;99.90
8332;DHT22;4203;48.144;14.118;2024-03-29T08:53:06;16.90;99.90
8332;DHT22;4203;48.144;14.118;2024-03-29T08:55:34;17.10;99.90
8332;DHT22;4203;48.144;14.118;2024-03-29T08:58:04;17.20;99.90
8332;DHT22;4203;48.144;14.118;2024-03-29T09:00:31;17.20;99.90
8332;DHT22;4203;48.144;14.118;2024-03-29T09:02:58;17.00;99.90
8332;DHT22;4203;48.144;14.118;2024-03-29T09:05:36;17.10;99.90
8332;DHT22;4203;48.144;14.118;2024-03-29T09:08:03;17.30;99.90
8332;DHT22;4203;48.144;14.118;2024-03-29T09:10:30;17.50;99.90
8332;DHT22;4203;48.144;14.118;2024-03-29T09:12:58;17.70;99.90
8332;DHT22;4203;48.144;14.118;2024-03-29T09:15:26;17.80;99.90
8332;DHT22;4203;48.144;14.118;2024-03-29T09:17:53;17.80;99.90
8332;DHT22;4203;48.144;14.118;2024-03-29T09:20:21;17.90;99.90
8332;DHT22;4203;48.144;14.118;2024-03-29T09:22:51;18.30;99.90
8332;DHT22;4203;48.144;14.118;2024-03-29T09:25:19;18.50;99.90
8332;DHT22;4203;48.144;14.118;2024-03-29T09:27:46;18.60;99.90
8332;DHT22;4203;48.144;14.118;2024-03-29T09:30:14;18.60;99.90
8332;DHT22;4203;48.144;14.118;2024-03-29T09:32:43;18.50;99.90
8332;DHT22;4203;48.144;14.118;2024-03-29T09:35:10;18.80;99.90
8332;DHT22;4203;48.144;14.118;2024-03-29T09:37:38;19.00;99.90
8332;DHT22;4203;48.144;14.118;2024-03-29T09:40:07;19.00;99.90
8332;DHT22;4203;48.144;14.118;2024-03-29T09:42:35;19.00;99.90
8332;DHT22;4203;48.144;14.118;2024-03-29T09:45:03;19.60;99.90
8332;DHT22;4203;48.144;14.118;2024-03-29T09:47:32;19.80;99.90
8332;DHT22;4203;48.144;14.118;2024-03-29T09:50:03;19.60;99.90
8332;DHT22;4203;48.144;14.118;2024-03-29T09:52:31;19.50;99.90
8332;DHT22;4203;48.144;14.118;2024-03-29T09:55:00;19.00;99.90
8332;DHT22;4203;48.144;14.118;2024-03-29T09:57:28;18.80;99.90
8332;DHT22;4203;48.144;14.118;2024-03-29T09:59:56;18.40;99.90
8332;DHT22;4203;48.144;14.118;2024-03-29T10:02:27;18.30;99.90
8332;DHT22;4203;48.144;14.118;2024-03-29T10:04:56;18.60;99.90
8332;DHT22;4203;48.144;14.118;2024-03-29T10:07:26;18.00;99.90
8332;DHT22;4203;48.144;14.118;2024-03-29T10:09:55;18.00;99.90
8332;DHT22;4203;48.144;14.118;2024-03-29T10:12:24;18.00;99.90
8332;DHT22;4203;48.144;14.118;2024-03-29T10:14:51;18.10;99.90
8332;DHT22;4203;48.144;14.118;2024-03-29T10:17:21;18.00;99.90
8332;DHT22;4203;48.144;14.118;2024-03-29T10:19:48;17.90;99.90
8332;DHT22;4203;48.144;14.118;2024-03-29T10:22:15;18.10;99.90
8332;DHT22;4203;48.144;14.118;2024-03-29T10:24:44;18.20;99.90
8332;DHT22;4203;48.144;14.118;2024-03-29T10:27:11;18.00;99.90
8332;DHT22;4203;48.144;14.118;2024-03-29T10:29:40;18.00;99.90
8332;DHT22;4203;48.144;14.118;2024-03-29T10:32:07;17.80;99.90
8332;DHT22;4203;48.144;14.118;2024-03-29T10:34:34;17.60;99.90
8332;DHT22;4203;48.144;14.118;2024-03-29T10:37:03;17.70;99.90
8332;DHT22;4203;48.144;14.118;2024-03-29T10:39:31;17.60;99.90
8332;DHT22;4203;48.144;14.118;2024-03-29T10:42:01;17.60;99.90
8332;DHT22;4203;48.144;14.118;2024-03-29T10:44:29;17.80;99.90
8332;DHT22;4203;48.144;14.118;2024-03-29T10:46:57;17.90;99.90
8332;DHT22;4203;48.144;14.118;2024-03-29T10:49:25;17.90;99.90
8332;DHT22;4203;48.144;14.118;2024-03-29T10:51:53;18.20;99.90
8332;DHT22;4203;48.144;14.118;2024-03-29T10:54:22;18.30;99.90
8332;DHT22;4203;48.144;14.118;2024-03-29T10:56:57;18.60;99.90
8332;DHT22;4203;48.144;14.118;2024-03-29T10:59:34;18.70;99.90
8332;DHT22;4203;48.144;14.118;2024-03-29T11:02:12;18.70;99.90
8332;DHT22;4203;48.144;14.118;2024-03-29T11:04:40;18.60;99.90
8332;DHT22;4203;48.144;14.118;2024-03-29T11:07:15;18.40;99.90
8332;DHT22;4203;48.144;14.118;2024-03-29T11:09:43;18.50;99.90
8332;DHT22;4203;48.144;14.118;2024-03-29T11:12:11;18.70;99.90
8332;DHT22;4203;48.144;14.118;2024-03-29T11:14:45;18.90;99.90
8332;DHT22;4203;48.144;14.118;2024-03-29T11:17:13;19.30;99.90
8332;DHT22;4203;48.144;14.118;2024-03-29T11:19:41;19.80;99.90
8332;DHT22;4203;48.144;14.118;2024-03-29T11:22:09;19.90;99.90
8332;DHT22;4203;48.144;14.118;2024-03-29T11:24:38;20.30;99.90
8332;DHT22;4203;48.144;14.118;2024-03-29T11:27:10;20.80;99.90
8332;DHT22;4203;48.144;14.118;2024-03-29T11:29:43;21.10;99.90
8332;DHT22;4203;48.144;14.118;2024-03-29T11:32:11;21.10;99.90
8332;DHT22;4203;48.144;14.118;2024-03-29T11:34:44;20.70;99.90
8332;DHT22;4203;48.144;14.118;2024-03-29T11:37:12;20.50;99.90
8332;DHT22;4203;48.144;14.118;2024-03-29T11:39:40;20.60;99.90
8332;DHT22;4203;48.144;14.118;2024-03-29T11:42:07;20.50;99.90
8332;DHT22;4203;48.144;14.118;2024-03-29T11:44:34;20.30;99.90
8332;DHT22;4203;48.144;14.118;2024-03-29T11:47:04;20.20;99.90
8332;DHT22;4203;48.144;14.118;2024-03-29T11:49:33;20.50;99.90
8332;DHT22;4203;48.144;14.118;2024-03-29T11:52:05;20.70;99.90
8332;DHT22;4203;48.144;14.118;2024-03-29T11:54:39;20.70;99.90
8332;DHT22;4203;48.144;14.118;2024-03-29T11:57:06;20.60;99.90
8332;DHT22;4203;48.144;14.118;2024-03-29T11:59:34;20.60;99.90
8332;DHT22;4203;48.144;14.118;2024-03-29T12:02:02;20.80;99.90
8332;DHT22;4203;48.144;14.118;2024-03-29T12:04:31;21.20;99.90
8332;DHT22;4203;48.144;14.118;2024-03-29T12:06:58;22.30;99.90
8332;DHT22;4203;48.144;14.118;2024-03-29T12:09:26;23.20;99.90
8332;DHT22;4203;48.144;14.118;2024-03-29T12:11:53;23.50;99.90
8332;DHT22;4203;48.144;14.118;2024-03-29T12:14:24;23.00;98.30
8332;DHT22;4203;48.144;14.118;2024-03-29T12:16:52;22.50;99.00
8332;DHT22;4203;48.144;14.118;2024-03-29T12:19:24;22.30;99.90
8332;DHT22;4203;48.144;14.118;2024-03-29T12:21:53;21.70;99.90
8332;DHT22;4203;48.144;14.118;2024-03-29T12:24:21;21.30;99.90
8332;DHT22;4203;48.144;14.118;2024-03-29T12:26:49;21.00;99.90
8332;DHT22;4203;48.144;14.118;2024-03-29T12:29:17;20.80;99.90
8332;DHT22;4203;48.144;14.118;2024-03-29T12:31:44;20.70;99.90
8332;DHT22;4203;48.144;14.118;2024-03-29T12:34:21;20.70;99.90
8332;DHT22;4203;48.144;14.118;2024-03-29T12:36:50;21.10;99.90
8332;DHT22;4203;48.144;14.118;2024-03-29T12:39:17;21.40;99.90
8332;DHT22;4203;48.144;14.118;2024-03-29T12:41:46;21.80;99.90
8332;DHT22;4203;48.144;14.118;2024-03-29T12:44:14;22.40;99.90
8332;DHT22;4203;48.144;14.118;2024-03-29T12:46:41;22.80;99.90
8332;DHT22;4203;48.144;14.118;2024-03-29T12:49:10;23.30;99.90
8332;DHT22;4203;48.144;14.118;2024-03-29T12:51:40;23.80;99.90
8332;DHT22;4203;48.144;14.118;2024-03-29T12:54:09;24.10;99.30
8332;DHT22;4203;48.144;14.118;2024-03-29T12:56:36;24.10;99.90
8332;DHT22;4203;48.144;14.118;2024-03-29T12:59:06;24.60;99.90
8332;DHT22;4203;48.144;14.118;2024-03-29T13:01:33;25.00;99.50
8332;DHT22;4203;48.144;14.118;2024-03-29T13:04:01;25.40;96.30
8332;DHT22;4203;48.144;14.118;2024-03-29T13:06:29;25.30;97.10
8332;DHT22;4203;48.144;14.118;2024-03-29T13:08:56;25.00;97.50
8332;DHT22;4203;48.144;14.118;2024-03-29T13:11:25;25.40;98.50
8332;DHT22;4203;48.144;14.118;2024-03-29T13:13:52;25.60;98.70
8332;DHT22;4203;48.144;14.118;2024-03-29T13:16:20;25.90;95.80
8332;DHT22;4203;48.144;14.118;2024-03-29T13:18:47;25.50;94.90
8332;DHT22;4203;48.144;14.118;2024-03-29T13:21:14;25.00;94.40
8332;DHT22;4203;48.144;14.118;2024-03-29T13:23:41;25.20;93.30
8332;DHT22;4203;48.144;14.118;2024-03-29T13:26:09;25.10;92.90
8332;DHT22;4203;48.144;14.118;2024-03-29T13:28:38;25.30;93.90
8332;DHT22;4203;48.144;14.118;2024-03-29T13:31:05;25.70;93.50
8332;DHT22;4203;48.144;14.118;2024-03-29T13:33:32;26.00;92.90
8332;DHT22;4203;48.144;14.118;2024-03-29T13:36:00;25.90;91.70
8332;DHT22;4203;48.144;14.118;2024-03-29T13:38:27;25.50;91.10
8332;DHT22;4203;48.144;14.118;2024-03-29T13:40:55;25.60;93.10
8332;DHT22;4203;48.144;14.118;2024-03-29T13:43:23;25.30;91.80
8332;DHT22;4203;48.144;14.118;2024-03-29T13:45:52;25.10;92.70
8332;DHT22;4203;48.144;14.118;2024-03-29T13:48:20;25.40;93.40
8332;DHT22;4203;48.144;14.118;2024-03-29T13:50:47;25.60;92.50
8332;DHT22;4203;48.144;14.118;2024-03-29T13:53:16;25.40;91.30
8332;DHT22;4203;48.144;14.118;2024-03-29T13:55:43;25.30;91.80
8332;DHT22;4203;48.144;14.118;2024-03-29T13:58:10;25.20;93.50
8332;DHT22;4203;48.144;14.118;2024-03-29T14:00:38;25.20;91.60
8332;DHT22;4203;48.144;14.118;2024-03-29T14:03:06;25.70;93.90
8332;DHT22;4203;48.144;14.118;2024-03-29T14:05:34;25.90;91.90
8332;DHT22;4203;48.144;14.118;2024-03-29T14:08:02;25.80;90.30
8332;DHT22;4203;48.144;14.118;2024-03-29T14:10:29;26.00;92.50
8332;DHT22;4203;48.144;14.118;2024-03-29T14:12:56;26.00;91.40
8332;DHT22;4203;48.144;14.118;2024-03-29T14:15:25;26.20;91.00
8332;DHT22;4203;48.144;14.118;2024-03-29T14:17:53;26.10;92.00
8332;DHT22;4203;48.144;14.118;2024-03-29T14:20:22;25.90;89.10
8332;DHT22;4203;48.144;14.118;2024-03-29T14:22:49;25.70;91.40
8332;DHT22;4203;48.144;14.118;2024-03-29T14:25:22;25.70;90.30
8332;DHT22;4203;48.144;14.118;2024-03-29T14:27:49;25.70;90.50
8332;DHT22;4203;48.144;14.118;2024-03-29T14:30:23;25.60;90.60
8332;DHT22;4203;48.144;14.118;2024-03-29T14:32:51;25.30;90.00
8332;DHT22;4203;48.144;14.118;2024-03-29T14:35:20;25.00;90.40
8332;DHT22;4203;48.144;14.118;2024-03-29T14:37:48;25.00;89.70
8332;DHT22;4203;48.144;14.118;2024-03-29T14:40:15;25.10;90.50
8332;DHT22;4203;48.144;14.118;2024-03-29T14:42:44;24.90;89.40
8332;DHT22;4203;48.144;14.118;2024-03-29T14:45:11;24.70;89.00
8332;DHT22;4203;48.144;14.118;2024-03-29T14:47:38;24.70;90.50
8332;DHT22;4203;48.144;14.118;2024-03-29T14:50:06;25.00;92.30
8332;DHT22;4203;48.144;14.118;2024-03-29T14:52:35;24.90;90.60
8332;DHT22;4203;48.144;14.118;2024-03-29T14:55:04;24.70;90.40
8332;DHT22;4203;48.144;14.118;2024-03-29T14:57:31;24.50;91.60
8332;DHT22;4203;48.144;14.118;2024-03-29T14:59:58;24.30;91.20
8332;DHT22;4203;48.144;14.118;2024-03-29T15:02:26;23.90;90.50
8332;DHT22;4203;48.144;14.118;2024-03-29T15:04:53;23.30;91.30
8332;DHT22;4203;48.144;14.118;2024-03-29T15:07:20;23.00;91.50
8332;DHT22;4203;48.144;14.118;2024-03-29T15:09:51;22.70;92.10
8332;DHT22;4203;48.144;14.118;2024-03-29T15:12:18;22.50;93.10
8332;DHT22;4203;48.144;14.118;2024-03-29T15:14:46;22.40;93.10
8332;DHT22;4203;48.144;14.118;2024-03-29T15:17:13;22.40;93.00
8332;DHT22;4203;48.144;14.118;2024-03-29T15:19:41;22.30;93.00
8332;DHT22;4203;48.144;14.118;2024-03-29T15:22:08;22.20;93.10
8332;DHT22;4203;48.144;14.118;2024-03-29T15:24:38;22.10;93.40
8332;DHT22;4203;48.144;14.118;2024-03-29T15:27:07;22.10;93.40
8332;DHT22;4203;48.144;14.118;2024-03-29T15:29:42;22.00;93.40
8332;DHT22;4203;48.144;14.118;2024-03-29T15:32:08;22.00;94.20
8332;DHT22;4203;48.144;14.118;2024-03-29T15:34:36;21.70;94.90
8332;DHT22;4203;48.144;14.118;2024-03-29T15:37:03;21.60;94.30
8332;DHT22;4203;48.144;14.118;2024-03-29T15:39:30;21.60;96.00
8332;DHT22;4203;48.144;14.118;2024-03-29T15:41:57;21.40;95.30
8332;DHT22;4203;48.144;14.118;2024-03-29T15:44:27;21.30;95.50
8332;DHT22;4203;48.144;14.118;2024-03-29T15:46:54;21.30;95.60
8332;DHT22;4203;48.144;14.118;2024-03-29T15:49:21;21.20;96.50
8332;DHT22;4203;48.144;14.118;2024-03-29T15:51:48;21.20;96.00
8332;DHT22;4203;48.144;14.118;2024-03-29T15:54:15;21.10;95.60
8332;DHT22;4203;48.144;14.118;2024-03-29T15:56:45;21.10;96.70
8332;DHT22;4203;48.144;14.118;2024-03-29T15:59:13;21.00;97.60
8332;DHT22;4203;48.144;14.118;2024-03-29T16:01:42;20.90;98.90
8332;DHT22;4203;48.144;14.118;2024-03-29T16:04:10;20.80;98.70
8332;DHT22;4203;48.144;14.118;2024-03-29T16:06:37;20.80;99.90
8332;DHT22;4203;48.144;14.118;2024-03-29T16:09:05;20.60;99.90
8332;DHT22;4203;48.144;14.118;2024-03-29T16:11:34;20.50;99.90
8332;DHT22;4203;48.144;14.118;2024-03-29T16:14:02;20.40;99.90
8332;DHT22;4203;48.144;14.118;2024-03-29T16:16:31;20.30;99.90
8332;DHT22;4203;48.144;14.118;2024-03-29T16:19:00;20.20;99.90
8332;DHT22;4203;48.144;14.118;2024-03-29T16:21:27;20.00;99.90
8332;DHT22;4203;48.144;14.118;2024-03-29T16:23:54;19.90;99.90
8332;DHT22;4203;48.144;14.118;2024-03-29T16:26:21;19.70;99.90
8332;DHT22;4203;48.144;14.118;2024-03-29T16:28:48;19.60;99.90
8332;DHT22;4203;48.144;14.118;2024-03-29T16:31:17;19.40;99.90
8332;DHT22;4203;48.144;14.118;2024-03-29T16:33:45;19.10;99.90
8332;DHT22;4203;48.144;14.118;2024-03-29T16:36:13;18.80;99.90
8332;DHT22;4203;48.144;14.118;2024-03-29T16:38:40;18.60;99.90
8332;DHT22;4203;48.144;14.118;2024-03-29T16:41:06;18.40;99.90
8332;DHT22;4203;48.144;14.118;2024-03-29T16:43:34;18.30;99.90
8332;DHT22;4203;48.144;14.118;2024-03-29T16:46:00;18.30;99.90
8332;DHT22;4203;48.144;14.118;2024-03-29T16:48:27;18.20;99.90
8332;DHT22;4203;48.144;14.118;2024-03-29T16:50:54;18.00;99.90
8332;DHT22;4203;48.144;14.118;2024-03-29T16:53:22;17.80;99.90
8332;DHT22;4203;48.144;14.118;2024-03-29T16:55:49;17.60;99.90
8332;DHT22;4203;48.144;14.118;2024-03-29T16:58:17;17.50;99.90
8332;DHT22;4203;48.144;14.118;2024-03-29T17:00:43;17.30;99.90
8332;DHT22;4203;48.144;14.118;2024-03-29T17:03:12;17.10;99.90
8332;DHT22;4203;48.144;14.118;2024-03-29T17:05:38;16.90;99.90
8332;DHT22;4203;48.144;14.118;2024-03-29T17:08:06;16.70;99.90
8332;DHT22;4203;48.144;14.118;2024-03-29T17:10:33;16.70;99.90
8332;DHT22;4203;48.144;14.118;2024-03-29T17:13:01;16.50;99.90
8332;DHT22;4203;48.144;14.118;2024-03-29T17:15:28;16.30;99.90
8332;DHT22;4203;48.144;14.118;2024-03-29T17:17:56;16.20;99.90
8332;DHT22;4203;48.144;14.118;2024-03-29T17:20:22;16.00;99.90
8332;DHT22;4203;48.144;14.118;2024-03-29T17:22:49;15.90;99.90
8332;DHT22;4203;48.144;14.118;2024-03-29T17:25:16;15.60;99.90
8332;DHT22;4203;48.144;14.118;2024-03-29T17:27:44;15.40;99.90
8332;DHT22;4203;48.144;14.118;2024-03-29T17:30:11;15.20;99.90
8332;DHT22;4203;48.144;14.118;2024-03-29T17:32:38;15.10;99.90
8332;DHT22;4203;48.144;14.118;2024-03-29T17:35:06;15.00;99.90
8332;DHT22;4203;48.144;14.118;2024-03-29T17:37:33;14.90;99.90
8332;DHT22;4203;48.144;14.118;2024-03-29T17:39:59;14.70;99.90
8332;DHT22;4203;48.144;14.118;2024-03-29T17:42:27;14.50;99.90